FHAW

Details ICAO FHAW
Name Ascension Wideawake Field
Region Saint Helena, Ascension and Tristan da Cunha
Timezone Atlantic/St_Helena (UTC+0.0)
Plans Departing 30
Arriving 46
Stats Elevation 278 ft / 85 m (AMSL)
Location -7.969590° -14.393699°
Runways 1
Magnetic Variation 15.459° W
Sunrise 2017-04-27 07:00:50 UTC / 2017-04-27 07:00:50 Local
Sunset 2017-04-27 18:51:52 UTC / 2017-04-27 18:51:52 Local
Advertisement - Login to hide

Runways

ID Width Length Bearing (true) Bearing (mag) Surface Threshold Offset Overrun Length
13 148 ft / 45 m 10,008 ft / 3,050 m 116.79° 132.25° Asphalt 0 ft / 0 m 262 ft / 80 m
31 148 ft / 45 m 10,008 ft / 3,050 m 296.79° 312.25° Asphalt 0 ft / 0 m 495 ft / 151 m

Map

Weather

Temperature
Clouds and Precipitation
Forecast for 2017-04-28 00:00 UTC. Updated an hour ago
Winds

METAR

Not found

TAF

TAF FHAW 271930Z 2721/2815 14014KT 9999 FEW016 PROB40 TEMPO 2721/2815 15015G25KT 5000 SHRA BKN014

Frequencies

Tower 126.20 MHz Wideawake Tower
Warning: Do not use this data for real-world aviation or navigation. No guarantee of current accuracy is given.